Time;durP1;ratioP1;P1;durP2;ratioP2;P2;SDS_P1;SDS_P2;PMS_P1;PMS_P2;Temp;Humidity;BMP_temperature;BMP_pressure;BME280_temperature;BME280_humidity;BME280_pressure;Samples;Min_cycle;Max_cycle;Signal;HPM_P1;HPM_P2
2023/08/27 00:01:05;;;;;;;66.72;63.17;;;;;;;;;;5105475;28;20047;-69
2023/08/27 00:03:30;;;;;;;72.38;68.70;;;;;;;;;;5103091;28;20047;-69
2023/08/27 00:05:56;;;;;;;66.78;63.25;;;;;;;;;;5102394;28;20058;-69
2023/08/27 00:08:22;;;;;;;75.28;71.53;;;;;;;;;;5101750;28;20055;-69
2023/08/27 00:10:47;;;;;;;69.25;65.78;;;;;;;;;;5104069;28;20413;-69
2023/08/27 00:13:12;;;;;;;73.82;70.13;;;;;;;;;;5104642;28;20039;-69
2023/08/27 00:15:44;;;;;;;77.45;73.60;;;;;;;;;;5102737;28;20031;-69
2023/08/27 00:18:10;;;;;;;65.82;62.47;;;;;;;;;;5104292;27;20369;-69
2023/08/27 00:20:35;;;;;;;70.35;66.80;;;;;;;;;;5101755;28;20046;-68
2023/08/27 00:23:00;;;;;;;74.45;70.68;;;;;;;;;;5103677;28;20359;-70
2023/08/27 00:25:26;;;;;;;64.95;61.53;;;;;;;;;;5100590;28;20045;-68
2023/08/27 00:27:51;;;;;;;63.35;60.17;;;;;;;;;;5103317;28;20530;-68
2023/08/27 00:30:16;;;;;;;66.18;62.85;;;;;;;;;;5104476;28;20043;-68
2023/08/27 00:32:42;;;;;;;63.45;60.17;;;;;;;;;;5065987;28;20032;-68
2023/08/27 00:35:08;;;;;;;63.53;60.20;;;;;;;;;;5103938;28;20093;-67
2023/08/27 00:37:33;;;;;;;60.10;57.08;;;;;;;;;;5102540;28;20028;-69
2023/08/27 00:39:58;;;;;;;65.22;61.88;;;;;;;;;;5103711;28;20035;-68
2023/08/27 00:42:24;;;;;;;66.72;63.38;;;;;;;;;;5103646;28;20039;-68
2023/08/27 00:44:49;;;;;;;62.70;59.53;;;;;;;;;;5103099;28;20027;-68
2023/08/27 00:47:15;;;;;;;63.85;60.67;;;;;;;;;;5104045;28;20495;-68
2023/08/27 00:49:42;;;;;;;53.28;50.58;;;;;;;;;;5083481;28;20035;-68
2023/08/27 00:52:09;;;;;;;45.60;43.28;;;;;;;;;;5103111;28;20035;-68
2023/08/27 00:54:35;;;;;;;46.03;43.72;;;;;;;;;;5103315;28;20114;-68
2023/08/27 00:57:03;;;;;;;40.53;38.42;;;;;;;;;;5101787;28;20552;-67
2023/08/27 00:59:29;;;;;;;39.70;37.55;;;;;;;;;;5102736;28;20122;-69
2023/08/27 01:01:54;;;;;;;44.33;41.92;;;;;;;;;;5102285;28;20118;-70
2023/08/27 01:04:20;;;;;;;43.65;41.35;;;;;;;;;;5104217;28;20035;-69
2023/08/27 01:06:45;;;;;;;46.42;44.03;;;;;;;;;;5083399;28;20024;-68
2023/08/27 01:09:30;;;;;;;42.30;40.10;;;;;;;;;;5100702;28;20043;-68
2023/08/27 01:11:56;;;;;;;40.45;38.35;;;;;;;;;;5101285;28;20027;-68
2023/08/27 01:14:22;;;;;;;37.85;35.85;;;;;;;;;;5101430;28;20501;-69
2023/08/27 01:16:50;;;;;;;38.25;36.28;;;;;;;;;;5081250;28;20521;-69
2023/08/27 01:19:17;;;;;;;33.35;31.55;;;;;;;;;;5100792;28;20547;-69
2023/08/27 01:21:43;;;;;;;28.83;27.20;;;;;;;;;;5101579;28;20035;-69
2023/08/27 01:24:10;;;;;;;26.85;25.42;;;;;;;;;;5103284;28;20039;-69
2023/08/27 01:26:41;;;;;;;25.58;24.17;;;;;;;;;;5101258;27;20024;-69
2023/08/27 01:29:37;;;;;;;23.15;21.80;;;;;;;;;;5101150;28;20054;-69
2023/08/27 01:32:21;;;;;;;22.88;21.38;;;;;;;;;;5101205;28;20035;-69
2023/08/27 01:34:47;;;;;;;22.67;21.42;;;;;;;;;;5083370;28;20574;-69
2023/08/27 01:37:13;;;;;;;22.60;21.38;;;;;;;;;;5102170;28;20105;-69
2023/08/27 01:39:42;;;;;;;26.75;25.30;;;;;;;;;;5102151;28;20048;-69
2023/08/27 01:42:07;;;;;;;27.00;25.13;;;;;;;;;;5084021;28;20050;-70
2023/08/27 01:44:32;;;;;;;26.38;24.83;;;;;;;;;;5101942;28;20035;-69
2023/08/27 01:46:58;;;;;;;24.42;23.13;;;;;;;;;;5081275;28;20028;-69
2023/08/27 01:49:23;;;;;;;25.67;24.15;;;;;;;;;;5102384;28;20202;-69
2023/08/27 01:51:49;;;;;;;23.80;22.48;;;;;;;;;;5083038;28;20027;-69
2023/08/27 01:54:16;;;;;;;22.73;21.45;;;;;;;;;;5100070;28;20032;-69
2023/08/27 01:56:42;;;;;;;21.80;20.50;;;;;;;;;;5100459;28;20101;-69
2023/08/27 01:59:07;;;;;;;22.33;21.13;;;;;;;;;;5080994;28;20043;-69
2023/08/27 02:01:32;;;;;;;22.50;21.17;;;;;;;;;;5101192;28;20028;-69
2023/08/27 02:03:58;;;;;;;22.27;21.08;;;;;;;;;;5102506;28;20035;-69
2023/08/27 02:06:23;;;;;;;19.63;18.55;;;;;;;;;;5103545;28;20031;-70
2023/08/27 02:08:49;;;;;;;19.92;18.80;;;;;;;;;;5066519;28;20046;-69
2023/08/27 02:11:14;;;;;;;20.70;19.50;;;;;;;;;;5103248;28;20036;-69
2023/08/27 02:13:39;;;;;;;21.30;20.13;;;;;;;;;;5102346;28;20377;-69
2023/08/27 02:16:05;;;;;;;22.92;21.42;;;;;;;;;;5083653;28;20405;-70
2023/08/27 02:18:30;;;;;;;32.17;22.77;;;;;;;;;;5102960;28;20037;-69
2023/08/27 02:20:56;;;;;;;25.88;24.48;;;;;;;;;;5082053;28;20048;-68
2023/08/27 02:23:22;;;;;;;25.00;23.60;;;;;;;;;;5103345;28;20549;-71
2023/08/27 02:25:48;;;;;;;28.52;26.95;;;;;;;;;;5099970;28;20045;-70
2023/08/27 02:28:13;;;;;;;39.28;36.38;;;;;;;;;;5083018;28;20474;-69
2023/08/27 02:30:38;;;;;;;41.72;39.47;;;;;;;;;;5102066;28;20473;-70
2023/08/27 02:33:04;;;;;;;38.55;36.55;;;;;;;;;;5088794;28;20429;-70
2023/08/27 02:35:29;;;;;;;42.97;40.78;;;;;;;;;;5102670;28;20035;-70
2023/08/27 02:37:54;;;;;;;41.42;39.25;;;;;;;;;;5082657;28;20040;-70
2023/08/27 02:40:20;;;;;;;39.90;37.85;;;;;;;;;;5103389;28;20024;-70
2023/08/27 02:42:46;;;;;;;37.22;35.28;;;;;;;;;;5102905;28;20136;-70
2023/08/27 02:45:12;;;;;;;35.67;33.78;;;;;;;;;;5078211;28;20055;-70
2023/08/27 02:47:37;;;;;;;35.63;33.72;;;;;;;;;;5102932;28;20027;-70
2023/08/27 02:50:04;;;;;;;36.50;34.60;;;;;;;;;;5102957;28;20469;-70
2023/08/27 02:52:29;;;;;;;36.72;34.85;;;;;;;;;;5102789;28;20782;-71
2023/08/27 02:54:54;;;;;;;38.30;36.25;;;;;;;;;;5101948;28;20134;-70
2023/08/27 02:57:20;;;;;;;40.63;38.45;;;;;;;;;;5104120;28;20417;-71
2023/08/27 02:59:45;;;;;;;44.47;42.20;;;;;;;;;;5102426;28;20078;-71
2023/08/27 03:02:10;;;;;;;45.90;43.55;;;;;;;;;;5105090;28;20082;-70
2023/08/27 03:04:36;;;;;;;40.38;38.13;;;;;;;;;;5083222;28;20032;-70
2023/08/27 03:07:01;;;;;;;35.65;33.67;;;;;;;;;;5086116;28;20677;-70
2023/08/27 03:09:27;;;;;;;35.28;33.38;;;;;;;;;;5104009;27;20092;-70
2023/08/27 03:11:52;;;;;;;34.00;32.20;;;;;;;;;;5105549;28;20028;-71
2023/08/27 03:14:17;;;;;;;29.13;27.58;;;;;;;;;;5105823;28;20031;-70
2023/08/27 03:16:43;;;;;;;29.08;27.55;;;;;;;;;;5103751;28;20102;-70
2023/08/27 03:19:08;;;;;;;28.23;26.73;;;;;;;;;;5105446;28;20058;-70
2023/08/27 03:21:34;;;;;;;27.17;25.55;;;;;;;;;;5102117;28;20043;-70
2023/08/27 03:23:59;;;;;;;19.63;18.48;;;;;;;;;;5102354;28;20044;-70
2023/08/27 03:26:25;;;;;;;23.63;21.42;;;;;;;;;;5106090;28;20073;-70
2023/08/27 03:28:50;;;;;;;20.27;19.15;;;;;;;;;;5104191;28;20139;-70
2023/08/27 03:31:16;;;;;;;19.80;18.73;;;;;;;;;;5103762;28;20039;-70
2023/08/27 03:33:42;;;;;;;18.80;17.75;;;;;;;;;;5086542;28;20046;-71
2023/08/27 03:36:07;;;;;;;19.60;18.50;;;;;;;;;;5104537;28;20032;-71
2023/08/27 03:38:33;;;;;;;17.25;16.25;;;;;;;;;;5106589;28;20516;-71
2023/08/27 03:40:58;;;;;;;16.63;15.55;;;;;;;;;;5103619;28;20043;-70
2023/08/27 03:43:23;;;;;;;18.38;17.35;;;;;;;;;;5104801;28;20083;-70
2023/08/27 03:45:49;;;;;;;16.05;15.15;;;;;;;;;;5079250;28;20028;-69
2023/08/27 03:48:15;;;;;;;17.95;16.95;;;;;;;;;;5106497;28;20398;-71
2023/08/27 03:50:40;;;;;;;16.60;15.65;;;;;;;;;;5104376;27;20039;-70
2023/08/27 03:53:05;;;;;;;16.27;15.35;;;;;;;;;;5083695;28;20055;-71
2023/08/27 03:55:38;;;;;;;19.85;18.75;;;;;;;;;;5085333;28;20476;-70
2023/08/27 03:58:04;;;;;;;17.15;16.15;;;;;;;;;;5082573;28;20024;-70
2023/08/27 04:00:29;;;;;;;15.07;14.20;;;;;;;;;;5086048;28;20466;-71
2023/08/27 04:02:55;;;;;;;16.90;15.85;;;;;;;;;;5083319;28;20131;-69
2023/08/27 04:05:20;;;;;;;16.45;15.55;;;;;;;;;;5085912;28;20103;-70
2023/08/27 04:07:45;;;;;;;16.83;15.90;;;;;;;;;;5105089;28;20053;-71
2023/08/27 04:10:11;;;;;;;15.85;14.93;;;;;;;;;;5104228;28;20039;-70
2023/08/27 04:12:36;;;;;;;16.48;15.55;;;;;;;;;;5102540;28;20074;-70
2023/08/27 04:15:01;;;;;;;18.42;17.38;;;;;;;;;;5104216;28;20031;-70
2023/08/27 04:17:28;;;;;;;16.98;16.02;;;;;;;;;;5104696;28;20081;-70
2023/08/27 04:19:55;;;;;;;18.52;17.33;;;;;;;;;;5100885;28;20035;-69
2023/08/27 04:22:20;;;;;;;17.90;16.90;;;;;;;;;;5102848;28;20036;-71
2023/08/27 04:24:46;;;;;;;16.33;15.43;;;;;;;;;;5105195;28;20110;-70
2023/08/27 04:27:11;;;;;;;17.33;16.30;;;;;;;;;;5084429;28;20032;-69
2023/08/27 04:29:36;;;;;;;17.60;16.38;;;;;;;;;;5084717;28;20087;-70
2023/08/27 04:32:03;;;;;;;14.25;13.45;;;;;;;;;;5102251;27;20171;-70
2023/08/27 04:34:29;;;;;;;14.70;13.88;;;;;;;;;;5104355;28;20115;-70
2023/08/27 04:36:56;;;;;;;15.90;15.00;;;;;;;;;;5084405;28;20123;-70
2023/08/27 04:39:22;;;;;;;16.48;14.82;;;;;;;;;;5105244;28;20035;-70
2023/08/27 04:41:48;;;;;;;16.08;15.13;;;;;;;;;;5104564;28;20058;-70
2023/08/27 04:44:13;;;;;;;15.95;15.05;;;;;;;;;;5103264;28;20458;-69
2023/08/27 04:46:39;;;;;;;17.05;16.05;;;;;;;;;;5081678;28;20031;-70
2023/08/27 04:49:04;;;;;;;16.73;15.73;;;;;;;;;;5102481;28;20035;-69
2023/08/27 04:51:29;;;;;;;16.48;15.55;;;;;;;;;;5101869;28;20043;-71
2023/08/27 04:53:55;;;;;;;19.42;18.25;;;;;;;;;;5102019;28;20031;-69
2023/08/27 04:56:20;;;;;;;21.80;20.63;;;;;;;;;;5103963;28;20416;-68
2023/08/27 04:58:45;;;;;;;23.25;22.00;;;;;;;;;;5102844;28;20037;-68
2023/08/27 05:01:11;;;;;;;24.35;23.02;;;;;;;;;;5103928;28;20102;-72
2023/08/27 05:03:36;;;;;;;28.55;27.02;;;;;;;;;;5097216;28;20035;-68
2023/08/27 05:06:02;;;;;;;31.35;29.70;;;;;;;;;;5065243;28;20549;-72
2023/08/27 05:08:27;;;;;;;36.28;34.10;;;;;;;;;;5101888;28;20027;-72
2023/08/27 05:10:53;;;;;;;44.05;41.80;;;;;;;;;;5066570;28;20661;-71
2023/08/27 05:13:19;;;;;;;32.65;30.92;;;;;;;;;;5103443;28;20043;-68
2023/08/27 05:15:44;;;;;;;32.47;30.60;;;;;;;;;;5096432;27;20523;-70
2023/08/27 05:18:10;;;;;;;28.27;26.77;;;;;;;;;;5102683;28;20058;-69
2023/08/27 05:20:38;;;;;;;32.30;30.50;;;;;;;;;;5099738;28;20474;-67
2023/08/27 05:23:04;;;;;;;31.48;29.83;;;;;;;;;;5101011;28;20050;-68
2023/08/27 05:25:29;;;;;;;27.83;26.35;;;;;;;;;;5100378;27;20032;-71
2023/08/27 05:27:55;;;;;;;30.88;29.23;;;;;;;;;;5082045;28;20028;-71
2023/08/27 05:30:20;;;;;;;26.00;24.33;;;;;;;;;;5099211;28;20044;-71
2023/08/27 05:32:45;;;;;;;25.13;23.77;;;;;;;;;;5102515;28;20578;-67
2023/08/27 05:35:11;;;;;;;25.80;24.42;;;;;;;;;;5098423;28;20035;-71
2023/08/27 05:37:37;;;;;;;21.83;20.52;;;;;;;;;;5083901;28;20084;-69
2023/08/27 05:40:06;;;;;;;18.67;17.52;;;;;;;;;;5099192;28;20039;-67
2023/08/27 05:42:32;;;;;;;18.67;17.63;;;;;;;;;;5101147;28;20045;-71
2023/08/27 05:44:58;;;;;;;21.10;19.90;;;;;;;;;;5102566;28;20444;-72
2023/08/27 05:47:23;;;;;;;19.05;17.98;;;;;;;;;;5097528;28;20055;-72
2023/08/27 05:49:49;;;;;;;21.02;19.88;;;;;;;;;;5101541;28;20036;-67
2023/08/27 05:52:14;;;;;;;19.20;18.13;;;;;;;;;;5099336;28;20526;-70
2023/08/27 05:54:39;;;;;;;18.42;17.33;;;;;;;;;;5095909;28;20031;-70
2023/08/27 05:57:05;;;;;;;19.48;18.38;;;;;;;;;;5097340;28;20035;-67
2023/08/27 05:59:30;;;;;;;19.63;18.50;;;;;;;;;;5084596;28;20035;-70
2023/08/27 06:01:57;;;;;;;20.15;19.05;;;;;;;;;;5101595;28;20039;-67
2023/08/27 06:04:24;;;;;;;17.60;16.63;;;;;;;;;;5097551;28;20082;-69
2023/08/27 06:06:49;;;;;;;19.17;18.10;;;;;;;;;;5099477;28;20028;-68
2023/08/27 06:09:18;;;;;;;18.73;17.52;;;;;;;;;;5095809;28;20035;-68
2023/08/27 06:11:43;;;;;;;17.60;16.60;;;;;;;;;;5099322;28;20123;-68
2023/08/27 06:14:09;;;;;;;20.63;19.33;;;;;;;;;;5097753;28;20114;-71
2023/08/27 06:16:34;;;;;;;17.60;16.55;;;;;;;;;;5095391;28;20050;-68
2023/08/27 06:19:00;;;;;;;17.88;16.85;;;;;;;;;;5098596;28;20039;-68
2023/08/27 06:21:25;;;;;;;18.42;17.33;;;;;;;;;;5098864;28;20101;-72
2023/08/27 06:23:53;;;;;;;19.02;17.92;;;;;;;;;;5103204;28;20116;-72
2023/08/27 06:26:19;;;;;;;18.83;17.80;;;;;;;;;;5098429;28;20070;-71
2023/08/27 06:28:46;;;;;;;21.05;19.85;;;;;;;;;;5099551;28;20063;-67
2023/08/27 06:31:12;;;;;;;20.70;19.50;;;;;;;;;;5061390;28;20058;-68
2023/08/27 06:33:38;;;;;;;21.45;20.30;;;;;;;;;;5100119;28;20067;-69
2023/08/27 06:36:04;;;;;;;21.42;20.23;;;;;;;;;;5099864;28;20131;-67
2023/08/27 06:38:30;;;;;;;22.85;21.63;;;;;;;;;;5083379;28;20071;-68
2023/08/27 06:40:55;;;;;;;24.13;22.83;;;;;;;;;;5103779;28;20517;-72
2023/08/27 06:43:21;;;;;;;22.25;21.00;;;;;;;;;;5098721;27;20031;-72
2023/08/27 06:45:46;;;;;;;27.27;25.77;;;;;;;;;;5082815;28;20023;-72
2023/08/27 06:48:11;;;;;;;31.00;28.83;;;;;;;;;;5083749;28;20063;-73
2023/08/27 06:50:37;;;;;;;32.58;30.80;;;;;;;;;;5102594;28;20043;-74
2023/08/27 06:53:04;;;;;;;33.92;32.10;;;;;;;;;;5105344;28;20043;-72
2023/08/27 06:55:29;;;;;;;37.88;35.88;;;;;;;;;;5068393;28;20073;-68
2023/08/27 06:57:54;;;;;;;35.92;34.05;;;;;;;;;;5104817;28;20376;-73
2023/08/27 07:00:20;;;;;;;36.33;34.38;;;;;;;;;;5104183;28;20684;-71
2023/08/27 07:02:46;;;;;;;34.72;32.88;;;;;;;;;;5105764;28;20046;-67
2023/08/27 07:05:11;;;;;;;36.85;34.95;;;;;;;;;;5084143;28;20031;-68
2023/08/27 07:07:40;;;;;;;36.00;34.13;;;;;;;;;;5103917;28;20069;-67
2023/08/27 07:10:06;;;;;;;34.78;32.88;;;;;;;;;;5105858;28;20053;-67
2023/08/27 07:12:33;;;;;;;35.97;34.08;;;;;;;;;;5085919;28;20375;-71
2023/08/27 07:14:59;;;;;;;42.97;40.58;;;;;;;;;;5101740;28;20551;-71
2023/08/27 07:17:25;;;;;;;50.53;47.90;;;;;;;;;;5105749;27;20406;-71
2023/08/27 07:19:50;;;;;;;49.92;47.35;;;;;;;;;;5099641;28;20032;-70
2023/08/27 07:22:15;;;;;;;54.45;51.67;;;;;;;;;;5101969;28;20031;-69
2023/08/27 07:24:42;;;;;;;49.08;46.58;;;;;;;;;;5091031;28;20036;-69
2023/08/27 07:27:08;;;;;;;57.97;55.03;;;;;;;;;;5101558;27;20035;-70
2023/08/27 07:29:33;;;;;;;68.18;64.72;;;;;;;;;;5102525;28;20036;-67
2023/08/27 07:31:58;;;;;;;69.03;65.50;;;;;;;;;;5098197;27;20363;-70
2023/08/27 07:34:24;;;;;;;75.50;71.68;;;;;;;;;;5103250;28;20035;-70
2023/08/27 07:36:49;;;;;;;79.78;75.75;;;;;;;;;;5079284;27;20572;-70
2023/08/27 07:39:14;;;;;;;74.60;70.88;;;;;;;;;;5101096;28;20173;-70
2023/08/27 07:41:40;;;;;;;75.25;71.47;;;;;;;;;;5103478;28;20131;-67
2023/08/27 07:44:05;;;;;;;63.33;59.97;;;;;;;;;;5104269;28;20035;-66
2023/08/27 07:46:31;;;;;;;40.15;38.08;;;;;;;;;;5104541;28;20039;-67
2023/08/27 07:48:56;;;;;;;39.08;37.08;;;;;;;;;;5104792;28;20042;-67
2023/08/27 07:51:22;;;;;;;39.80;37.63;;;;;;;;;;5096643;27;20087;-68
2023/08/27 07:53:47;;;;;;;30.75;29.05;;;;;;;;;;5105257;28;21132;-69
2023/08/27 07:56:12;;;;;;;26.65;25.20;;;;;;;;;;5104050;28;20470;-67
2023/08/27 07:58:38;;;;;;;26.80;25.35;;;;;;;;;;5104947;28;20057;-67
2023/08/27 08:01:04;;;;;;;33.05;31.25;;;;;;;;;;5083405;28;20177;-66
2023/08/27 08:03:30;;;;;;;28.90;27.35;;;;;;;;;;5101874;28;20032;-67
2023/08/27 08:05:55;;;;;;;30.55;28.88;;;;;;;;;;5104315;28;20019;-66
2023/08/27 08:08:22;;;;;;;37.55;35.53;;;;;;;;;;5103162;28;20039;-67
2023/08/27 08:10:47;;;;;;;42.10;39.88;;;;;;;;;;5103780;28;20062;-67
2023/08/27 08:13:13;;;;;;;45.45;43.05;;;;;;;;;;5103182;28;20378;-70
2023/08/27 08:15:38;;;;;;;51.55;48.92;;;;;;;;;;5104340;28;20051;-70
2023/08/27 08:18:04;;;;;;;56.58;53.67;;;;;;;;;;5103676;28;20034;-67
2023/08/27 08:20:29;;;;;;;68.88;65.32;;;;;;;;;;5101884;28;20031;-67
2023/08/27 08:22:55;;;;;;;70.75;67.18;;;;;;;;;;5103415;28;20031;-67
2023/08/27 08:25:24;;;;;;;66.80;63.25;;;;;;;;;;5083859;28;20016;-67
2023/08/27 08:27:50;;;;;;;56.23;53.40;;;;;;;;;;5102986;28;20050;-71
2023/08/27 08:30:15;;;;;;;50.72;48.08;;;;;;;;;;5104585;28;20767;-67
2023/08/27 08:32:40;;;;;;;38.67;36.67;;;;;;;;;;5103987;28;20050;-67
2023/08/27 08:35:06;;;;;;;37.00;35.05;;;;;;;;;;5103991;28;20111;-68
2023/08/27 08:37:32;;;;;;;38.40;36.30;;;;;;;;;;5099719;28;20465;-70
2023/08/27 08:39:57;;;;;;;45.20;42.38;;;;;;;;;;5082661;28;20031;-67
2023/08/27 08:42:57;;;;;;;33.67;31.85;;;;;;;;;;5103503;28;20035;-67
2023/08/27 08:45:59;;;;;;;33.97;31.93;;;;;;;;;;5085960;28;20046;-67
2023/08/27 08:48:26;;;;;;;34.00;31.65;;;;;;;;;;5102356;28;20032;-67
2023/08/27 08:50:53;;;;;;;34.10;32.10;;;;;;;;;;5104011;27;20093;-67
2023/08/27 08:53:23;;;;;;;38.30;35.90;;;;;;;;;;5103573;28;20032;-71
2023/08/27 08:55:57;;;;;;;30.65;28.88;;;;;;;;;;5103632;28;20044;-72
2023/08/27 08:58:27;;;;;;;36.13;34.15;;;;;;;;;;5083888;28;20043;-71
2023/08/27 09:00:55;;;;;;;40.47;38.15;;;;;;;;;;5102385;28;20059;-67
2023/08/27 09:03:21;;;;;;;50.00;47.33;;;;;;;;;;5103404;28;20469;-67
2023/08/27 09:05:48;;;;;;;53.60;50.50;;;;;;;;;;5084189;28;20114;-67
2023/08/27 09:08:14;;;;;;;46.33;43.88;;;;;;;;;;5102341;28;20042;-67
2023/08/27 09:10:40;;;;;;;47.15;44.60;;;;;;;;;;5097778;28;20029;-71
2023/08/27 09:13:05;;;;;;;52.67;49.70;;;;;;;;;;5102209;28;20032;-72
2023/08/27 09:15:31;;;;;;;60.95;57.72;;;;;;;;;;5102090;28;20040;-67
2023/08/27 09:17:56;;;;;;;66.15;62.67;;;;;;;;;;5102263;28;20032;-68
2023/08/27 09:20:22;;;;;;;87.55;83.03;;;;;;;;;;5102011;28;20137;-68
2023/08/27 09:22:48;;;;;;;90.82;86.25;;;;;;;;;;5102959;28;20044;-72
2023/08/27 09:25:14;;;;;;;99.70;94.43;;;;;;;;;;5102770;28;20023;-72
2023/08/27 09:27:39;;;;;;;108.70;103.03;;;;;;;;;;5101709;28;20028;-70
2023/08/27 09:30:05;;;;;;;127.68;121.22;;;;;;;;;;5101707;27;20382;-68
2023/08/27 09:32:31;;;;;;;135.65;128.15;;;;;;;;;;5100560;28;20032;-72
2023/08/27 09:35:01;;;;;;;138.02;131.10;;;;;;;;;;5103189;28;20115;-70
2023/08/27 09:37:29;;;;;;;148.25;140.85;;;;;;;;;;5102446;28;20102;-70
2023/08/27 09:39:55;;;;;;;138.82;131.88;;;;;;;;;;5084859;28;20134;-71
2023/08/27 09:42:24;;;;;;;147.60;140.18;;;;;;;;;;5101124;28;20545;-67
2023/08/27 09:44:51;;;;;;;147.95;140.20;;;;;;;;;;5082290;28;20481;-68
2023/08/27 09:47:27;;;;;;;123.20;117.10;;;;;;;;;;5078652;28;20410;-71
2023/08/27 09:49:53;;;;;;;167.48;159.18;;;;;;;;;;5102416;28;20035;-70
2023/08/27 09:52:25;;;;;;;79.15;74.88;;;;;;;;;;5102431;28;20039;-68
2023/08/27 09:54:51;;;;;;;103.40;98.28;;;;;;;;;;5100202;28;20032;-68
2023/08/27 09:57:21;;;;;;;65.18;61.50;;;;;;;;;;5082639;28;20089;-68
2023/08/27 09:59:47;;;;;;;42.33;39.67;;;;;;;;;;5100512;28;20462;-67
2023/08/27 10:02:14;;;;;;;24.38;23.00;;;;;;;;;;5102096;28;20130;-69
2023/08/27 10:04:56;;;;;;;47.58;45.08;;;;;;;;;;5100373;28;20483;-68
2023/08/27 10:07:22;;;;;;;27.10;25.60;;;;;;;;;;5100776;28;20063;-71
2023/08/27 10:09:52;;;;;;;33.35;31.38;;;;;;;;;;5103563;28;20031;-70
2023/08/27 10:12:19;;;;;;;22.27;21.08;;;;;;;;;;5085802;28;20560;-69
2023/08/27 10:14:45;;;;;;;22.30;21.05;;;;;;;;;;5103036;28;20110;-71
2023/08/27 10:17:12;;;;;;;21.88;20.48;;;;;;;;;;5104173;28;20373;-70
2023/08/27 10:19:38;;;;;;;20.48;19.30;;;;;;;;;;5104412;28;20035;-71
2023/08/27 10:22:03;;;;;;;24.10;22.75;;;;;;;;;;5086332;28;20114;-68
2023/08/27 10:24:30;;;;;;;37.90;35.92;;;;;;;;;;5081879;28;20044;-68
2023/08/27 10:27:00;;;;;;;31.80;30.10;;;;;;;;;;5104325;28;20050;-68
2023/08/27 10:29:26;;;;;;;89.43;84.93;;;;;;;;;;5103180;28;20039;-69
2023/08/27 10:31:52;;;;;;;74.95;71.22;;;;;;;;;;5103694;28;20477;-71
2023/08/27 10:34:18;;;;;;;102.20;97.18;;;;;;;;;;5104385;28;20039;-69
2023/08/27 10:36:45;;;;;;;90.93;86.43;;;;;;;;;;5103661;28;20088;-70
2023/08/27 10:39:11;;;;;;;70.82;67.22;;;;;;;;;;5105166;28;20035;-70
2023/08/27 10:41:37;;;;;;;71.30;67.75;;;;;;;;;;5084897;28;20032;-69
2023/08/27 10:44:03;;;;;;;60.88;57.67;;;;;;;;;;5084982;28;20053;-66
2023/08/27 10:46:28;;;;;;;39.05;36.95;;;;;;;;;;5105068;28;20035;-70
2023/08/27 10:48:54;;;;;;;36.67;34.75;;;;;;;;;;5104771;28;20052;-67
2023/08/27 10:51:30;;;;;;;42.17;39.97;;;;;;;;;;5105944;28;20070;-66
2023/08/27 10:53:58;;;;;;;80.43;76.43;;;;;;;;;;5101579;28;20123;-66
2023/08/27 10:56:32;;;;;;;92.60;88.05;;;;;;;;;;5105125;28;20051;-66
2023/08/27 10:58:59;;;;;;;75.63;71.88;;;;;;;;;;5104777;28;20545;-66
2023/08/27 11:01:25;;;;;;;35.28;33.45;;;;;;;;;;5104292;28;20038;-69
2023/08/27 11:03:57;;;;;;;33.28;31.52;;;;;;;;;;5102125;28;20032;-70
2023/08/27 11:06:35;;;;;;;57.45;54.58;;;;;;;;;;5105298;28;20031;-70
2023/08/27 11:09:00;;;;;;;31.63;29.88;;;;;;;;;;5103640;28;20035;-67
2023/08/27 11:11:26;;;;;;;31.58;29.88;;;;;;;;;;5105048;28;20500;-66
2023/08/27 11:14:10;;;;;;;67.45;64.05;;;;;;;;;;5104033;28;20078;-67
2023/08/27 11:16:55;;;;;;;57.15;54.28;;;;;;;;;;5084837;28;20031;-66
2023/08/27 11:19:26;;;;;;;94.45;89.78;;;;;;;;;;5103632;28;20429;-67
2023/08/27 11:21:52;;;;;;;65.90;62.60;;;;;;;;;;5102003;28;20093;-69
2023/08/27 11:24:21;;;;;;;75.70;71.93;;;;;;;;;;5104015;28;20059;-67
2023/08/27 11:26:48;;;;;;;129.63;123.22;;;;;;;;;;5098865;28;20024;-66
2023/08/27 11:29:14;;;;;;;103.75;98.68;;;;;;;;;;5105369;28;20032;-67
2023/08/27 11:31:41;;;;;;;53.65;50.90;;;;;;;;;;5101894;28;20148;-66
2023/08/27 11:34:08;;;;;;;37.63;35.63;;;;;;;;;;5103692;28;20463;-66
2023/08/27 11:36:34;;;;;;;24.83;23.48;;;;;;;;;;5101884;28;20119;-67
2023/08/27 11:39:01;;;;;;;24.98;23.58;;;;;;;;;;5084554;28;20053;-71
2023/08/27 11:41:36;;;;;;;42.15;39.97;;;;;;;;;;5100992;28;20513;-66
2023/08/27 11:44:03;;;;;;;52.10;49.42;;;;;;;;;;5103148;28;20506;-66
2023/08/27 11:46:28;;;;;;;21.65;20.48;;;;;;;;;;5101912;28;20035;-66
2023/08/27 11:48:53;;;;;;;17.58;16.58;;;;;;;;;;5100421;28;20039;-67
2023/08/27 11:51:19;;;;;;;34.85;32.65;;;;;;;;;;5103106;28;20450;-69
2023/08/27 11:53:45;;;;;;;26.27;24.80;;;;;;;;;;5102513;28;20039;-69
2023/08/27 11:56:17;;;;;;;19.00;17.95;;;;;;;;;;5102691;28;20047;-67
2023/08/27 11:58:44;;;;;;;27.05;25.65;;;;;;;;;;5101477;28;20118;-67
2023/08/27 12:01:13;;;;;;;29.67;28.13;;;;;;;;;;5098879;28;20032;-69
2023/08/27 12:03:40;;;;;;;18.77;17.67;;;;;;;;;;5100656;28;20036;-66
2023/08/27 12:06:06;;;;;;;24.08;22.77;;;;;;;;;;5102414;28;20039;-66
2023/08/27 12:08:35;;;;;;;18.38;17.27;;;;;;;;;;5065846;28;20347;-66
2023/08/27 12:11:01;;;;;;;34.45;32.67;;;;;;;;;;5100896;28;20116;-68
2023/08/27 12:13:26;;;;;;;85.10;80.82;;;;;;;;;;5102328;28;20023;-67
2023/08/27 12:15:53;;;;;;;83.68;79.47;;;;;;;;;;5100622;28;20513;-67
2023/08/27 12:18:19;;;;;;;73.55;69.35;;;;;;;;;;5099881;27;20032;-68
2023/08/27 12:20:48;;;;;;;34.75;32.88;;;;;;;;;;5102059;28;20524;-68
2023/08/27 12:23:14;;;;;;;46.08;43.72;;;;;;;;;;5103501;28;20457;-68
2023/08/27 12:25:51;;;;;;;62.05;58.90;;;;;;;;;;5083577;28;20110;-68
2023/08/27 12:28:17;;;;;;;41.55;39.42;;;;;;;;;;5101128;28;20141;-67
2023/08/27 12:30:55;;;;;;;38.85;36.85;;;;;;;;;;5081649;28;20059;-67
2023/08/27 12:33:41;;;;;;;60.42;57.33;;;;;;;;;;5102195;28;20115;-69
2023/08/27 12:36:07;;;;;;;40.67;38.60;;;;;;;;;;5082477;28;20469;-69
2023/08/27 12:38:34;;;;;;;17.42;16.42;;;;;;;;;;5103012;28;20712;-69
2023/08/27 12:41:00;;;;;;;20.42;19.23;;;;;;;;;;5102214;28;20043;-68
2023/08/27 12:43:26;;;;;;;30.90;29.30;;;;;;;;;;5100512;28;20105;-71
2023/08/27 12:45:52;;;;;;;24.15;22.88;;;;;;;;;;5082104;28;20051;-71
2023/08/27 12:48:17;;;;;;;24.20;22.88;;;;;;;;;;5081353;28;20094;-69
2023/08/27 12:50:43;;;;;;;24.45;23.15;;;;;;;;;;5101868;28;20032;-69
2023/08/27 12:53:08;;;;;;;45.05;42.75;;;;;;;;;;5101522;28;20481;-67
2023/08/27 12:55:33;;;;;;;79.78;75.88;;;;;;;;;;5080496;28;20024;-69
2023/08/27 12:57:59;;;;;;;57.15;54.25;;;;;;;;;;5103117;28;20123;-70
2023/08/27 13:00:24;;;;;;;102.03;97.00;;;;;;;;;;5082176;28;20059;-73
2023/08/27 13:02:49;;;;;;;73.85;70.18;;;;;;;;;;5098307;28;21083;-71
2023/08/27 13:05:15;;;;;;;48.53;46.08;;;;;;;;;;5100480;28;20568;-66
2023/08/27 13:07:40;;;;;;;111.30;105.82;;;;;;;;;;5100976;28;20027;-67
2023/08/27 13:10:06;;;;;;;103.20;98.15;;;;;;;;;;5101398;28;20768;-66
2023/08/27 13:12:32;;;;;;;42.60;40.30;;;;;;;;;;5081890;28;20085;-66
2023/08/27 13:14:57;;;;;;;77.28;73.47;;;;;;;;;;5100812;28;20031;-66
2023/08/27 13:17:23;;;;;;;41.67;39.53;;;;;;;;;;5102295;28;20063;-71
2023/08/27 13:19:48;;;;;;;59.22;56.25;;;;;;;;;;5071917;28;20062;-69
2023/08/27 13:22:13;;;;;;;77.22;73.43;;;;;;;;;;5103351;28;20035;-69
2023/08/27 13:24:39;;;;;;;59.95;56.95;;;;;;;;;;5101035;28;20362;-68
2023/08/27 13:27:04;;;;;;;42.20;39.97;;;;;;;;;;5101486;28;20466;-66
2023/08/27 13:29:30;;;;;;;39.75;37.75;;;;;;;;;;5102252;28;20415;-69
2023/08/27 13:31:56;;;;;;;41.65;39.53;;;;;;;;;;5100397;28;20036;-68
2023/08/27 13:34:22;;;;;;;38.22;36.28;;;;;;;;;;5102977;28;20324;-66
2023/08/27 13:36:47;;;;;;;100.47;95.57;;;;;;;;;;5100472;28;20027;-66
2023/08/27 13:39:13;;;;;;;99.43;94.55;;;;;;;;;;5102963;28;20055;-69
2023/08/27 13:41:38;;;;;;;98.47;93.60;;;;;;;;;;5100240;28;20081;-68
2023/08/27 13:44:04;;;;;;;88.15;83.80;;;;;;;;;;5101337;28;20102;-69
2023/08/27 13:46:30;;;;;;;118.20;112.40;;;;;;;;;;5082266;28;20028;-68
2023/08/27 13:48:55;;;;;;;101.40;95.78;;;;;;;;;;5098347;28;20669;-71
2023/08/27 13:51:21;;;;;;;104.35;99.25;;;;;;;;;;5101110;28;20522;-66
2023/08/27 13:53:46;;;;;;;48.13;45.60;;;;;;;;;;5063779;28;20023;-66
2023/08/27 13:56:12;;;;;;;117.57;111.88;;;;;;;;;;5102618;28;20036;-65
2023/08/27 13:58:37;;;;;;;36.03;34.17;;;;;;;;;;5084250;28;20027;-65
2023/08/27 14:01:03;;;;;;;38.13;36.13;;;;;;;;;;5100926;28;20093;-69
2023/08/27 14:03:28;;;;;;;27.27;25.88;;;;;;;;;;5102868;28;20050;-69
2023/08/27 14:05:55;;;;;;;37.83;35.78;;;;;;;;;;5099762;28;20031;-65
2023/08/27 14:08:27;;;;;;;54.50;51.75;;;;;;;;;;5102031;28;20678;-67
2023/08/27 14:10:53;;;;;;;48.47;46.03;;;;;;;;;;5101388;28;21050;-66
2023/08/27 14:13:19;;;;;;;35.92;34.03;;;;;;;;;;5079885;28;20473;-65